sensor_id;sensor_type;location;lat;lon;timestamp;P1;durP1;ratioP1;P2;durP2;ratioP2
52564;SDS011;38460;53.106;7.004;2022-11-15T00:00:28;24.55;;;15.85;;
52564;SDS011;38460;53.106;7.004;2022-11-15T00:02:54;23.15;;;15.55;;
52564;SDS011;38460;53.106;7.004;2022-11-15T00:05:20;22.08;;;15.48;;
52564;SDS011;38460;53.106;7.004;2022-11-15T00:07:45;26.20;;;16.17;;
52564;SDS011;38460;53.106;7.004;2022-11-15T00:10:11;23.70;;;15.57;;
52564;SDS011;38460;53.106;7.004;2022-11-15T00:12:37;21.65;;;15.07;;
52564;SDS011;38460;53.106;7.004;2022-11-15T00:15:03;26.33;;;17.83;;
52564;SDS011;38460;53.106;7.004;2022-11-15T00:17:29;27.33;;;16.73;;
52564;SDS011;38460;53.106;7.004;2022-11-15T00:19:55;23.48;;;16.48;;
52564;SDS011;38460;53.106;7.004;2022-11-15T00:22:21;24.77;;;15.77;;
52564;SDS011;38460;53.106;7.004;2022-11-15T00:24:47;20.60;;;14.60;;
52564;SDS011;38460;53.106;7.004;2022-11-15T00:27:12;24.27;;;16.00;;
52564;SDS011;38460;53.106;7.004;2022-11-15T00:29:38;26.38;;;15.77;;
52564;SDS011;38460;53.106;7.004;2022-11-15T00:32:08;24.17;;;16.45;;
52564;SDS011;38460;53.106;7.004;2022-11-15T00:34:35;21.75;;;14.88;;
52564;SDS011;38460;53.106;7.004;2022-11-15T00:37:01;24.77;;;14.95;;
52564;SDS011;38460;53.106;7.004;2022-11-15T00:39:26;20.13;;;14.57;;
52564;SDS011;38460;53.106;7.004;2022-11-15T00:41:52;21.95;;;15.10;;
52564;SDS011;38460;53.106;7.004;2022-11-15T00:44:18;21.77;;;14.43;;
52564;SDS011;38460;53.106;7.004;2022-11-15T00:46:44;21.02;;;14.95;;
52564;SDS011;38460;53.106;7.004;2022-11-15T00:49:09;21.80;;;14.52;;
52564;SDS011;38460;53.106;7.004;2022-11-15T00:51:35;21.45;;;15.25;;
52564;SDS011;38460;53.106;7.004;2022-11-15T00:54:00;24.75;;;14.60;;
52564;SDS011;38460;53.106;7.004;2022-11-15T00:56:26;22.35;;;14.50;;
52564;SDS011;38460;53.106;7.004;2022-11-15T00:58:52;19.70;;;14.10;;
52564;SDS011;38460;53.106;7.004;2022-11-15T01:01:18;22.38;;;14.60;;
52564;SDS011;38460;53.106;7.004;2022-11-15T01:03:44;21.55;;;14.60;;
52564;SDS011;38460;53.106;7.004;2022-11-15T01:06:10;21.58;;;14.15;;
52564;SDS011;38460;53.106;7.004;2022-11-15T01:08:37;21.30;;;15.38;;
52564;SDS011;38460;53.106;7.004;2022-11-15T01:11:05;19.77;;;14.48;;
52564;SDS011;38460;53.106;7.004;2022-11-15T01:13:34;22.05;;;15.10;;
52564;SDS011;38460;53.106;7.004;2022-11-15T01:16:08;21.50;;;15.05;;
52564;SDS011;38460;53.106;7.004;2022-11-15T01:18:39;22.48;;;14.45;;
52564;SDS011;38460;53.106;7.004;2022-11-15T01:21:09;22.70;;;15.45;;
52564;SDS011;38460;53.106;7.004;2022-11-15T01:23:36;26.00;;;16.80;;
52564;SDS011;38460;53.106;7.004;2022-11-15T01:26:03;25.65;;;17.27;;
52564;SDS011;38460;53.106;7.004;2022-11-15T01:28:31;25.30;;;16.88;;
52564;SDS011;38460;53.106;7.004;2022-11-15T01:30:58;23.80;;;16.52;;
52564;SDS011;38460;53.106;7.004;2022-11-15T01:33:25;24.88;;;17.60;;
52564;SDS011;38460;53.106;7.004;2022-11-15T01:35:52;25.05;;;17.10;;
52564;SDS011;38460;53.106;7.004;2022-11-15T01:38:17;26.88;;;17.83;;
52564;SDS011;38460;53.106;7.004;2022-11-15T01:40:43;24.33;;;17.05;;
52564;SDS011;38460;53.106;7.004;2022-11-15T01:43:18;24.58;;;15.57;;
52564;SDS011;38460;53.106;7.004;2022-11-15T01:46:02;24.90;;;16.42;;
52564;SDS011;38460;53.106;7.004;2022-11-15T01:48:49;25.40;;;17.00;;
52564;SDS011;38460;53.106;7.004;2022-11-15T01:51:20;24.73;;;17.50;;
52564;SDS011;38460;53.106;7.004;2022-11-15T01:53:49;28.23;;;17.05;;
52564;SDS011;38460;53.106;7.004;2022-11-15T01:56:18;25.63;;;16.63;;
52564;SDS011;38460;53.106;7.004;2022-11-15T01:58:48;25.70;;;16.33;;
52564;SDS011;38460;53.106;7.004;2022-11-15T02:01:14;27.05;;;16.33;;
52564;SDS011;38460;53.106;7.004;2022-11-15T02:04:01;26.75;;;16.90;;
52564;SDS011;38460;53.106;7.004;2022-11-15T02:06:26;29.48;;;16.02;;
52564;SDS011;38460;53.106;7.004;2022-11-15T02:08:51;26.02;;;16.30;;
52564;SDS011;38460;53.106;7.004;2022-11-15T02:11:18;24.23;;;15.77;;
52564;SDS011;38460;53.106;7.004;2022-11-15T02:13:43;23.92;;;15.98;;
52564;SDS011;38460;53.106;7.004;2022-11-15T02:18:44;23.42;;;15.90;;
52564;SDS011;38460;53.106;7.004;2022-11-15T02:21:28;26.30;;;15.77;;
52564;SDS011;38460;53.106;7.004;2022-11-15T02:35:17;22.92;;;15.07;;
52564;SDS011;38460;53.106;7.004;2022-11-15T02:43:25;26.77;;;15.68;;
52564;SDS011;38460;53.106;7.004;2022-11-15T02:46:37;25.98;;;14.57;;
52564;SDS011;38460;53.106;7.004;2022-11-15T02:49:25;26.38;;;15.25;;
52564;SDS011;38460;53.106;7.004;2022-11-15T02:51:54;25.15;;;14.60;;
52564;SDS011;38460;53.106;7.004;2022-11-15T02:54:25;26.83;;;17.08;;
52564;SDS011;38460;53.106;7.004;2022-11-15T02:56:57;25.23;;;15.35;;
52564;SDS011;38460;53.106;7.004;2022-11-15T03:02:52;22.48;;;15.10;;
52564;SDS011;38460;53.106;7.004;2022-11-15T03:08:08;25.65;;;16.40;;
52564;SDS011;38460;53.106;7.004;2022-11-15T03:11:12;25.05;;;15.35;;
52564;SDS011;38460;53.106;7.004;2022-11-15T03:16:37;28.02;;;16.17;;
52564;SDS011;38460;53.106;7.004;2022-11-15T03:19:12;27.48;;;15.90;;
52564;SDS011;38460;53.106;7.004;2022-11-15T03:21:41;25.90;;;16.67;;
52564;SDS011;38460;53.106;7.004;2022-11-15T03:24:08;25.85;;;15.85;;
52564;SDS011;38460;53.106;7.004;2022-11-15T03:26:34;27.77;;;15.77;;
52564;SDS011;38460;53.106;7.004;2022-11-15T03:29:07;32.85;;;17.45;;
52564;SDS011;38460;53.106;7.004;2022-11-15T03:31:39;28.38;;;17.38;;
52564;SDS011;38460;53.106;7.004;2022-11-15T03:34:14;27.27;;;16.67;;
52564;SDS011;38460;53.106;7.004;2022-11-15T03:36:51;31.35;;;17.73;;
52564;SDS011;38460;53.106;7.004;2022-11-15T03:39:17;28.00;;;16.88;;
52564;SDS011;38460;53.106;7.004;2022-11-15T03:49:53;31.58;;;17.92;;
52564;SDS011;38460;53.106;7.004;2022-11-15T03:52:23;32.85;;;18.40;;
52564;SDS011;38460;53.106;7.004;2022-11-15T03:54:50;28.80;;;15.85;;
52564;SDS011;38460;53.106;7.004;2022-11-15T03:57:18;34.17;;;17.95;;
52564;SDS011;38460;53.106;7.004;2022-11-15T03:59:44;30.92;;;17.85;;
52564;SDS011;38460;53.106;7.004;2022-11-15T04:02:10;37.10;;;19.40;;
52564;SDS011;38460;53.106;7.004;2022-11-15T04:04:36;31.17;;;17.48;;
52564;SDS011;38460;53.106;7.004;2022-11-15T04:07:01;33.45;;;18.90;;
52564;SDS011;38460;53.106;7.004;2022-11-15T04:09:27;31.25;;;18.00;;
52564;SDS011;38460;53.106;7.004;2022-11-15T04:11:53;32.30;;;17.88;;
52564;SDS011;38460;53.106;7.004;2022-11-15T04:14:18;32.03;;;18.05;;
52564;SDS011;38460;53.106;7.004;2022-11-15T04:16:44;37.35;;;19.92;;
52564;SDS011;38460;53.106;7.004;2022-11-15T04:19:10;38.00;;;19.33;;
52564;SDS011;38460;53.106;7.004;2022-11-15T04:21:54;35.13;;;20.02;;
52564;SDS011;38460;53.106;7.004;2022-11-15T04:24:38;42.88;;;19.48;;
52564;SDS011;38460;53.106;7.004;2022-11-15T04:27:04;32.53;;;18.23;;
52564;SDS011;38460;53.106;7.004;2022-11-15T04:29:30;36.72;;;19.23;;
52564;SDS011;38460;53.106;7.004;2022-11-15T04:32:02;33.83;;;19.23;;
52564;SDS011;38460;53.106;7.004;2022-11-15T04:34:29;40.75;;;20.63;;
52564;SDS011;38460;53.106;7.004;2022-11-15T04:36:55;36.17;;;22.20;;
52564;SDS011;38460;53.106;7.004;2022-11-15T04:39:41;38.08;;;20.13;;
52564;SDS011;38460;53.106;7.004;2022-11-15T04:42:08;43.15;;;19.42;;
52564;SDS011;38460;53.106;7.004;2022-11-15T04:44:35;31.63;;;18.10;;
52564;SDS011;38460;53.106;7.004;2022-11-15T04:47:01;33.85;;;19.70;;
52564;SDS011;38460;53.106;7.004;2022-11-15T04:49:27;33.10;;;18.38;;
52564;SDS011;38460;53.106;7.004;2022-11-15T04:51:52;31.90;;;18.38;;
52564;SDS011;38460;53.106;7.004;2022-11-15T04:54:18;38.08;;;20.27;;
52564;SDS011;38460;53.106;7.004;2022-11-15T04:56:44;39.53;;;20.98;;
52564;SDS011;38460;53.106;7.004;2022-11-15T04:59:10;43.05;;;21.38;;
52564;SDS011;38460;53.106;7.004;2022-11-15T05:01:35;41.03;;;21.60;;
52564;SDS011;38460;53.106;7.004;2022-11-15T05:04:01;40.55;;;22.35;;
52564;SDS011;38460;53.106;7.004;2022-11-15T05:06:46;37.85;;;22.38;;
52564;SDS011;38460;53.106;7.004;2022-11-15T05:09:13;37.10;;;21.77;;
52564;SDS011;38460;53.106;7.004;2022-11-15T05:11:39;37.85;;;22.92;;
52564;SDS011;38460;53.106;7.004;2022-11-15T05:14:05;39.42;;;21.63;;
52564;SDS011;38460;53.106;7.004;2022-11-15T05:16:30;40.30;;;22.13;;
52564;SDS011;38460;53.106;7.004;2022-11-15T05:18:56;45.55;;;23.70;;
52564;SDS011;38460;53.106;7.004;2022-11-15T05:21:22;46.58;;;24.35;;
52564;SDS011;38460;53.106;7.004;2022-11-15T05:23:48;48.58;;;25.73;;
52564;SDS011;38460;53.106;7.004;2022-11-15T05:26:14;50.22;;;24.70;;
52564;SDS011;38460;53.106;7.004;2022-11-15T05:28:42;48.60;;;25.08;;
52564;SDS011;38460;53.106;7.004;2022-11-15T05:31:09;51.10;;;28.38;;
52564;SDS011;38460;53.106;7.004;2022-11-15T05:33:37;51.97;;;27.23;;
52564;SDS011;38460;53.106;7.004;2022-11-15T05:36:18;45.47;;;25.45;;
52564;SDS011;38460;53.106;7.004;2022-11-15T05:39:04;45.53;;;24.95;;
52564;SDS011;38460;53.106;7.004;2022-11-15T05:41:48;42.17;;;23.77;;
52564;SDS011;38460;53.106;7.004;2022-11-15T05:44:17;45.88;;;25.55;;
52564;SDS011;38460;53.106;7.004;2022-11-15T05:46:46;49.35;;;27.83;;
52564;SDS011;38460;53.106;7.004;2022-11-15T05:49:13;48.42;;;25.50;;
52564;SDS011;38460;53.106;7.004;2022-11-15T05:51:44;47.70;;;24.98;;
52564;SDS011;38460;53.106;7.004;2022-11-15T05:54:12;53.83;;;27.25;;
52564;SDS011;38460;53.106;7.004;2022-11-15T05:56:38;54.47;;;26.73;;
52564;SDS011;38460;53.106;7.004;2022-11-15T05:59:04;56.50;;;29.00;;
52564;SDS011;38460;53.106;7.004;2022-11-15T06:01:32;47.85;;;25.42;;
52564;SDS011;38460;53.106;7.004;2022-11-15T06:03:58;47.03;;;25.00;;
52564;SDS011;38460;53.106;7.004;2022-11-15T06:06:23;52.40;;;26.95;;
52564;SDS011;38460;53.106;7.004;2022-11-15T06:08:49;47.72;;;25.23;;
52564;SDS011;38460;53.106;7.004;2022-11-15T06:11:15;43.00;;;25.75;;
52564;SDS011;38460;53.106;7.004;2022-11-15T06:13:40;52.42;;;25.90;;
52564;SDS011;38460;53.106;7.004;2022-11-15T06:16:06;51.85;;;27.15;;
52564;SDS011;38460;53.106;7.004;2022-11-15T06:18:32;53.38;;;24.58;;
52564;SDS011;38460;53.106;7.004;2022-11-15T06:20:59;40.13;;;23.30;;
52564;SDS011;38460;53.106;7.004;2022-11-15T06:23:25;43.15;;;23.48;;
52564;SDS011;38460;53.106;7.004;2022-11-15T06:25:51;42.28;;;23.48;;
52564;SDS011;38460;53.106;7.004;2022-11-15T06:28:17;43.70;;;21.75;;
52564;SDS011;38460;53.106;7.004;2022-11-15T06:30:43;35.28;;;21.95;;
52564;SDS011;38460;53.106;7.004;2022-11-15T06:33:08;33.60;;;22.27;;
52564;SDS011;38460;53.106;7.004;2022-11-15T06:35:34;36.38;;;22.80;;
52564;SDS011;38460;53.106;7.004;2022-11-15T06:38:07;36.10;;;21.25;;
52564;SDS011;38460;53.106;7.004;2022-11-15T06:40:37;34.25;;;20.30;;
52564;SDS011;38460;53.106;7.004;2022-11-15T06:43:04;35.72;;;20.67;;
52564;SDS011;38460;53.106;7.004;2022-11-15T06:45:30;38.75;;;22.00;;
52564;SDS011;38460;53.106;7.004;2022-11-15T06:47:57;33.17;;;21.10;;
52564;SDS011;38460;53.106;7.004;2022-11-15T06:50:23;30.38;;;19.75;;
52564;SDS011;38460;53.106;7.004;2022-11-15T06:52:49;32.22;;;20.02;;
52564;SDS011;38460;53.106;7.004;2022-11-15T06:55:15;31.23;;;19.83;;
52564;SDS011;38460;53.106;7.004;2022-11-15T06:57:51;32.88;;;19.83;;
52564;SDS011;38460;53.106;7.004;2022-11-15T07:00:18;31.40;;;19.10;;
52564;SDS011;38460;53.106;7.004;2022-11-15T07:02:45;35.00;;;19.75;;
52564;SDS011;38460;53.106;7.004;2022-11-15T07:05:11;30.75;;;18.80;;
52564;SDS011;38460;53.106;7.004;2022-11-15T07:07:38;31.90;;;19.58;;
52564;SDS011;38460;53.106;7.004;2022-11-15T07:10:04;31.45;;;18.23;;
52564;SDS011;38460;53.106;7.004;2022-11-15T07:12:30;29.10;;;19.40;;
52564;SDS011;38460;53.106;7.004;2022-11-15T07:14:56;33.85;;;21.88;;
52564;SDS011;38460;53.106;7.004;2022-11-15T07:17:22;31.55;;;19.65;;
52564;SDS011;38460;53.106;7.004;2022-11-15T07:19:47;32.22;;;18.60;;
52564;SDS011;38460;53.106;7.004;2022-11-15T07:22:13;28.80;;;19.00;;
52564;SDS011;38460;53.106;7.004;2022-11-15T07:24:39;27.25;;;17.80;;
52564;SDS011;38460;53.106;7.004;2022-11-15T07:27:04;26.30;;;17.77;;
52564;SDS011;38460;53.106;7.004;2022-11-15T07:29:30;31.55;;;19.10;;
52564;SDS011;38460;53.106;7.004;2022-11-15T07:31:56;28.20;;;18.20;;
52564;SDS011;38460;53.106;7.004;2022-11-15T07:34:21;28.23;;;17.83;;
52564;SDS011;38460;53.106;7.004;2022-11-15T07:36:48;31.30;;;19.17;;
52564;SDS011;38460;53.106;7.004;2022-11-15T07:39:14;23.80;;;16.75;;
52564;SDS011;38460;53.106;7.004;2022-11-15T07:41:40;27.73;;;17.88;;
52564;SDS011;38460;53.106;7.004;2022-11-15T07:44:06;25.42;;;16.38;;
52564;SDS011;38460;53.106;7.004;2022-11-15T07:46:31;30.13;;;19.45;;
52564;SDS011;38460;53.106;7.004;2022-11-15T07:48:57;25.95;;;17.08;;
52564;SDS011;38460;53.106;7.004;2022-11-15T07:51:23;27.23;;;17.90;;
52564;SDS011;38460;53.106;7.004;2022-11-15T07:53:49;26.30;;;17.20;;
52564;SDS011;38460;53.106;7.004;2022-11-15T07:56:14;28.20;;;17.40;;
52564;SDS011;38460;53.106;7.004;2022-11-15T07:58:40;25.90;;;18.17;;
52564;SDS011;38460;53.106;7.004;2022-11-15T08:01:07;25.20;;;16.00;;
52564;SDS011;38460;53.106;7.004;2022-11-15T08:03:34;23.08;;;16.63;;
52564;SDS011;38460;53.106;7.004;2022-11-15T08:06:00;24.95;;;16.73;;
52564;SDS011;38460;53.106;7.004;2022-11-15T08:08:26;28.73;;;17.38;;
52564;SDS011;38460;53.106;7.004;2022-11-15T08:10:52;26.15;;;17.17;;
52564;SDS011;38460;53.106;7.004;2022-11-15T08:13:18;25.73;;;16.70;;
52564;SDS011;38460;53.106;7.004;2022-11-15T08:15:44;24.83;;;16.65;;
52564;SDS011;38460;53.106;7.004;2022-11-15T08:18:11;21.80;;;15.32;;
52564;SDS011;38460;53.106;7.004;2022-11-15T08:20:41;27.92;;;17.50;;
52564;SDS011;38460;53.106;7.004;2022-11-15T08:23:07;25.65;;;17.00;;
52564;SDS011;38460;53.106;7.004;2022-11-15T08:25:36;23.67;;;15.88;;
52564;SDS011;38460;53.106;7.004;2022-11-15T08:28:04;24.75;;;16.85;;
52564;SDS011;38460;53.106;7.004;2022-11-15T08:30:34;23.63;;;15.65;;
52564;SDS011;38460;53.106;7.004;2022-11-15T08:33:03;25.95;;;16.08;;
52564;SDS011;38460;53.106;7.004;2022-11-15T08:35:29;25.67;;;16.60;;
52564;SDS011;38460;53.106;7.004;2022-11-15T08:37:54;25.02;;;16.45;;
52564;SDS011;38460;53.106;7.004;2022-11-15T08:40:20;25.20;;;16.70;;
52564;SDS011;38460;53.106;7.004;2022-11-15T08:42:47;25.38;;;16.70;;
52564;SDS011;38460;53.106;7.004;2022-11-15T08:45:13;27.17;;;15.30;;
52564;SDS011;38460;53.106;7.004;2022-11-15T08:47:39;25.70;;;17.98;;
52564;SDS011;38460;53.106;7.004;2022-11-15T08:50:05;26.00;;;17.05;;
52564;SDS011;38460;53.106;7.004;2022-11-15T08:52:31;25.25;;;16.85;;
52564;SDS011;38460;53.106;7.004;2022-11-15T08:54:57;29.13;;;18.70;;
52564;SDS011;38460;53.106;7.004;2022-11-15T08:57:23;26.95;;;17.80;;
52564;SDS011;38460;53.106;7.004;2022-11-15T08:59:49;28.52;;;17.70;;
52564;SDS011;38460;53.106;7.004;2022-11-15T09:02:15;25.42;;;16.98;;
52564;SDS011;38460;53.106;7.004;2022-11-15T09:04:41;25.42;;;17.13;;
52564;SDS011;38460;53.106;7.004;2022-11-15T09:07:11;24.20;;;17.48;;
52564;SDS011;38460;53.106;7.004;2022-11-15T09:09:38;27.52;;;18.17;;
52564;SDS011;38460;53.106;7.004;2022-11-15T09:12:05;27.58;;;17.17;;
52564;SDS011;38460;53.106;7.004;2022-11-15T09:14:32;31.73;;;18.83;;
52564;SDS011;38460;53.106;7.004;2022-11-15T09:16:58;29.98;;;18.52;;
52564;SDS011;38460;53.106;7.004;2022-11-15T09:19:24;30.58;;;18.08;;
52564;SDS011;38460;53.106;7.004;2022-11-15T09:21:50;26.02;;;17.77;;
52564;SDS011;38460;53.106;7.004;2022-11-15T09:24:15;29.98;;;19.17;;
52564;SDS011;38460;53.106;7.004;2022-11-15T09:26:42;27.50;;;18.10;;
52564;SDS011;38460;53.106;7.004;2022-11-15T09:29:08;27.90;;;17.85;;
52564;SDS011;38460;53.106;7.004;2022-11-15T09:31:34;27.63;;;18.30;;
52564;SDS011;38460;53.106;7.004;2022-11-15T09:34:00;28.17;;;17.83;;
52564;SDS011;38460;53.106;7.004;2022-11-15T09:36:25;29.85;;;18.08;;
52564;SDS011;38460;53.106;7.004;2022-11-15T09:38:51;28.15;;;18.20;;
52564;SDS011;38460;53.106;7.004;2022-11-15T09:49:22;25.33;;;16.60;;
52564;SDS011;38460;53.106;7.004;2022-11-15T09:51:53;27.38;;;16.77;;
52564;SDS011;38460;53.106;7.004;2022-11-15T09:54:32;25.83;;;16.77;;
52564;SDS011;38460;53.106;7.004;2022-11-15T09:57:03;24.02;;;15.43;;
52564;SDS011;38460;53.106;7.004;2022-11-15T10:05:22;23.08;;;16.20;;
52564;SDS011;38460;53.106;7.004;2022-11-15T10:07:54;25.60;;;16.42;;
52564;SDS011;38460;53.106;7.004;2022-11-15T10:13:28;23.08;;;16.50;;
52564;SDS011;38460;53.106;7.004;2022-11-15T10:16:04;24.95;;;16.83;;
52564;SDS011;38460;53.106;7.004;2022-11-15T10:21:23;21.88;;;14.45;;
52564;SDS011;38460;53.106;7.004;2022-11-15T10:23:54;20.23;;;14.52;;
52564;SDS011;38460;53.106;7.004;2022-11-15T10:26:20;21.65;;;15.55;;
52564;SDS011;38460;53.106;7.004;2022-11-15T10:28:48;18.77;;;13.65;;
52564;SDS011;38460;53.106;7.004;2022-11-15T10:31:21;20.73;;;14.45;;
52564;SDS011;38460;53.106;7.004;2022-11-15T10:33:58;20.52;;;14.23;;
52564;SDS011;38460;53.106;7.004;2022-11-15T10:36:37;18.00;;;13.55;;
52564;SDS011;38460;53.106;7.004;2022-11-15T10:39:03;21.45;;;14.57;;
52564;SDS011;38460;53.106;7.004;2022-11-15T10:41:31;20.88;;;14.68;;
52564;SDS011;38460;53.106;7.004;2022-11-15T10:46:32;20.23;;;14.57;;
52564;SDS011;38460;53.106;7.004;2022-11-15T10:49:12;20.52;;;14.77;;
52564;SDS011;38460;53.106;7.004;2022-11-15T10:51:57;21.73;;;14.57;;
52564;SDS011;38460;53.106;7.004;2022-11-15T10:57:06;21.58;;;13.57;;
52564;SDS011;38460;53.106;7.004;2022-11-15T10:59:38;18.08;;;12.95;;
52564;SDS011;38460;53.106;7.004;2022-11-15T11:04:54;16.90;;;13.32;;
52564;SDS011;38460;53.106;7.004;2022-11-15T11:07:22;17.98;;;13.50;;
52564;SDS011;38460;53.106;7.004;2022-11-15T11:09:59;17.70;;;12.98;;
52564;SDS011;38460;53.106;7.004;2022-11-15T11:12:29;18.38;;;13.32;;
52564;SDS011;38460;53.106;7.004;2022-11-15T11:14:57;18.08;;;13.15;;
52564;SDS011;38460;53.106;7.004;2022-11-15T11:20:28;18.98;;;14.07;;
52564;SDS011;38460;53.106;7.004;2022-11-15T11:23:18;16.92;;;12.43;;
52564;SDS011;38460;53.106;7.004;2022-11-15T11:39:14;19.90;;;13.93;;
52564;SDS011;38460;53.106;7.004;2022-11-15T11:47:11;17.98;;;13.98;;
52564;SDS011;38460;53.106;7.004;2022-11-15T11:52:31;18.33;;;13.82;;
52564;SDS011;38460;53.106;7.004;2022-11-15T11:55:17;18.17;;;13.43;;
52564;SDS011;38460;53.106;7.004;2022-11-15T12:00:21;17.85;;;13.52;;
52564;SDS011;38460;53.106;7.004;2022-11-15T12:03:01;16.25;;;11.65;;
52564;SDS011;38460;53.106;7.004;2022-11-15T12:08:20;13.90;;;9.65;;
52564;SDS011;38460;53.106;7.004;2022-11-15T12:11:14;12.70;;;8.40;;
52564;SDS011;38460;53.106;7.004;2022-11-15T12:14:01;11.48;;;7.82;;
52564;SDS011;38460;53.106;7.004;2022-11-15T12:16:31;10.40;;;7.00;;
52564;SDS011;38460;53.106;7.004;2022-11-15T12:19:03;10.45;;;7.22;;
52564;SDS011;38460;53.106;7.004;2022-11-15T12:24:14;11.50;;;6.68;;
52564;SDS011;38460;53.106;7.004;2022-11-15T12:26:46;10.15;;;7.10;;
52564;SDS011;38460;53.106;7.004;2022-11-15T12:29:19;9.68;;;6.28;;
52564;SDS011;38460;53.106;7.004;2022-11-15T12:32:03;8.63;;;6.18;;
52564;SDS011;38460;53.106;7.004;2022-11-15T12:34:40;8.45;;;7.07;;
52564;SDS011;38460;53.106;7.004;2022-11-15T12:38:10;10.38;;;6.45;;
52564;SDS011;38460;53.106;7.004;2022-11-15T12:59:38;7.80;;;3.88;;
52564;SDS011;38460;53.106;7.004;2022-11-15T13:06:48;7.88;;;4.38;;
52564;SDS011;38460;53.106;7.004;2022-11-15T13:22:40;5.63;;;4.35;;
52564;SDS011;38460;53.106;7.004;2022-11-15T13:25:37;8.30;;;4.35;;
52564;SDS011;38460;53.106;7.004;2022-11-15T13:28:32;6.50;;;3.97;;
52564;SDS011;38460;53.106;7.004;2022-11-15T13:31:16;5.35;;;3.78;;
52564;SDS011;38460;53.106;7.004;2022-11-15T13:33:51;7.32;;;4.00;;
52564;SDS011;38460;53.106;7.004;2022-11-15T13:36:21;5.53;;;3.60;;
52564;SDS011;38460;53.106;7.004;2022-11-15T13:39:03;8.48;;;3.60;;
52564;SDS011;38460;53.106;7.004;2022-11-15T13:41:31;4.28;;;2.92;;
52564;SDS011;38460;53.106;7.004;2022-11-15T13:44:00;6.10;;;3.00;;
52564;SDS011;38460;53.106;7.004;2022-11-15T13:46:27;4.60;;;3.17;;
52564;SDS011;38460;53.106;7.004;2022-11-15T13:48:56;5.18;;;3.20;;
52564;SDS011;38460;53.106;7.004;2022-11-15T13:51:29;5.00;;;2.97;;
52564;SDS011;38460;53.106;7.004;2022-11-15T13:57:14;8.35;;;3.47;;
52564;SDS011;38460;53.106;7.004;2022-11-15T13:59:56;4.13;;;2.75;;
52564;SDS011;38460;53.106;7.004;2022-11-15T14:02:33;4.82;;;2.80;;
52564;SDS011;38460;53.106;7.004;2022-11-15T14:05:02;5.75;;;2.72;;
52564;SDS011;38460;53.106;7.004;2022-11-15T14:07:41;4.00;;;3.05;;
52564;SDS011;38460;53.106;7.004;2022-11-15T14:10:27;6.60;;;3.08;;
52564;SDS011;38460;53.106;7.004;2022-11-15T14:13:02;4.22;;;2.80;;
52564;SDS011;38460;53.106;7.004;2022-11-15T14:15:30;5.53;;;2.70;;
52564;SDS011;38460;53.106;7.004;2022-11-15T14:17:59;4.15;;;3.00;;
52564;SDS011;38460;53.106;7.004;2022-11-15T14:22:54;4.65;;;3.15;;
52564;SDS011;38460;53.106;7.004;2022-11-15T14:30:35;9.38;;;3.00;;
52564;SDS011;38460;53.106;7.004;2022-11-15T14:33:11;3.55;;;2.45;;
52564;SDS011;38460;53.106;7.004;2022-11-15T14:36:04;5.82;;;2.67;;
52564;SDS011;38460;53.106;7.004;2022-11-15T14:38:41;4.32;;;2.83;;
52564;SDS011;38460;53.106;7.004;2022-11-15T14:41:25;4.25;;;2.60;;
52564;SDS011;38460;53.106;7.004;2022-11-15T14:43:57;3.97;;;2.50;;
52564;SDS011;38460;53.106;7.004;2022-11-15T14:46:23;3.53;;;2.70;;
52564;SDS011;38460;53.106;7.004;2022-11-15T14:48:49;4.03;;;2.38;;
52564;SDS011;38460;53.106;7.004;2022-11-15T14:51:16;4.80;;;2.65;;
52564;SDS011;38460;53.106;7.004;2022-11-15T14:53:43;4.95;;;3.00;;
52564;SDS011;38460;53.106;7.004;2022-11-15T14:56:10;3.67;;;2.45;;
52564;SDS011;38460;53.106;7.004;2022-11-15T14:58:36;5.38;;;2.80;;
52564;SDS011;38460;53.106;7.004;2022-11-15T15:01:20;5.82;;;2.67;;
52564;SDS011;38460;53.106;7.004;2022-11-15T15:03:48;4.50;;;2.42;;
52564;SDS011;38460;53.106;7.004;2022-11-15T15:06:16;5.10;;;2.42;;
52564;SDS011;38460;53.106;7.004;2022-11-15T15:08:42;5.15;;;2.63;;
52564;SDS011;38460;53.106;7.004;2022-11-15T15:11:17;3.20;;;2.25;;
52564;SDS011;38460;53.106;7.004;2022-11-15T15:13:49;5.13;;;2.60;;
52564;SDS011;38460;53.106;7.004;2022-11-15T15:16:15;4.15;;;2.50;;
52564;SDS011;38460;53.106;7.004;2022-11-15T15:18:41;5.28;;;2.53;;
52564;SDS011;38460;53.106;7.004;2022-11-15T15:21:23;3.58;;;2.40;;
52564;SDS011;38460;53.106;7.004;2022-11-15T15:23:53;4.20;;;2.70;;
52564;SDS011;38460;53.106;7.004;2022-11-15T15:26:19;5.88;;;2.90;;
52564;SDS011;38460;53.106;7.004;2022-11-15T15:28:45;4.38;;;2.90;;
52564;SDS011;38460;53.106;7.004;2022-11-15T15:31:11;4.43;;;2.67;;
52564;SDS011;38460;53.106;7.004;2022-11-15T15:33:37;6.20;;;3.10;;
52564;SDS011;38460;53.106;7.004;2022-11-15T15:36:02;3.75;;;3.03;;
52564;SDS011;38460;53.106;7.004;2022-11-15T15:38:29;5.07;;;3.33;;
52564;SDS011;38460;53.106;7.004;2022-11-15T15:40:55;5.30;;;3.28;;
52564;SDS011;38460;53.106;7.004;2022-11-15T15:43:20;5.85;;;3.80;;
52564;SDS011;38460;53.106;7.004;2022-11-15T15:45:46;5.65;;;3.60;;
52564;SDS011;38460;53.106;7.004;2022-11-15T15:48:12;5.13;;;3.67;;
52564;SDS011;38460;53.106;7.004;2022-11-15T15:50:40;5.10;;;3.70;;
52564;SDS011;38460;53.106;7.004;2022-11-15T15:53:08;5.97;;;4.75;;
52564;SDS011;38460;53.106;7.004;2022-11-15T15:55:35;5.90;;;4.32;;
52564;SDS011;38460;53.106;7.004;2022-11-15T15:58:02;5.53;;;3.78;;
52564;SDS011;38460;53.106;7.004;2022-11-15T16:00:29;5.80;;;4.20;;
52564;SDS011;38460;53.106;7.004;2022-11-15T16:02:57;7.05;;;4.00;;
52564;SDS011;38460;53.106;7.004;2022-11-15T16:05:23;4.80;;;3.72;;
52564;SDS011;38460;53.106;7.004;2022-11-15T16:07:49;5.65;;;3.88;;
52564;SDS011;38460;53.106;7.004;2022-11-15T16:12:54;5.13;;;3.95;;
52564;SDS011;38460;53.106;7.004;2022-11-15T16:15:21;5.22;;;4.05;;
52564;SDS011;38460;53.106;7.004;2022-11-15T16:17:50;4.88;;;4.05;;
52564;SDS011;38460;53.106;7.004;2022-11-15T16:20:26;11.70;;;7.68;;
52564;SDS011;38460;53.106;7.004;2022-11-15T16:22:58;6.15;;;4.53;;
52564;SDS011;38460;53.106;7.004;2022-11-15T16:25:25;4.88;;;4.18;;
52564;SDS011;38460;53.106;7.004;2022-11-15T16:27:51;5.47;;;3.80;;
52564;SDS011;38460;53.106;7.004;2022-11-15T16:30:18;5.38;;;4.20;;
52564;SDS011;38460;53.106;7.004;2022-11-15T16:32:45;6.68;;;4.43;;
52564;SDS011;38460;53.106;7.004;2022-11-15T16:35:12;6.00;;;4.43;;
52564;SDS011;38460;53.106;7.004;2022-11-15T16:37:39;4.80;;;3.92;;
52564;SDS011;38460;53.106;7.004;2022-11-15T16:40:25;5.18;;;3.80;;
52564;SDS011;38460;53.106;7.004;2022-11-15T16:42:56;5.70;;;4.75;;
52564;SDS011;38460;53.106;7.004;2022-11-15T16:45:23;6.70;;;4.03;;
52564;SDS011;38460;53.106;7.004;2022-11-15T16:47:50;6.00;;;4.10;;
52564;SDS011;38460;53.106;7.004;2022-11-15T16:50:24;4.68;;;3.97;;
52564;SDS011;38460;53.106;7.004;2022-11-15T16:52:52;4.78;;;3.83;;
52564;SDS011;38460;53.106;7.004;2022-11-15T16:55:20;5.82;;;5.22;;
52564;SDS011;38460;53.106;7.004;2022-11-15T16:57:47;6.28;;;4.45;;
52564;SDS011;38460;53.106;7.004;2022-11-15T17:00:14;7.43;;;4.63;;
52564;SDS011;38460;53.106;7.004;2022-11-15T17:02:45;6.57;;;4.38;;
52564;SDS011;38460;53.106;7.004;2022-11-15T17:05:12;5.68;;;4.20;;
52564;SDS011;38460;53.106;7.004;2022-11-15T17:07:39;9.57;;;4.47;;
52564;SDS011;38460;53.106;7.004;2022-11-15T17:10:05;6.30;;;3.97;;